createdAt,value
2022-11-28T00:00:19.874Z,980.15
2022-11-28T00:01:19.858Z,980.12
2022-11-28T00:02:19.950Z,980.14
2022-11-28T00:03:19.862Z,980.07
2022-11-28T00:04:19.761Z,980.02
2022-11-28T00:05:19.774Z,980.03
2022-11-28T00:06:19.764Z,980.02
2022-11-28T00:07:19.846Z,980.02
2022-11-28T00:08:19.738Z,980.04
2022-11-28T00:09:19.735Z,980.04
2022-11-28T00:10:19.705Z,980.02
2022-11-28T00:11:19.719Z,980.02
2022-11-28T00:12:20.272Z,980.03
2022-11-28T00:13:19.702Z,980.03
2022-11-28T00:14:19.669Z,979.97
2022-11-28T00:15:19.668Z,980.01
2022-11-28T00:16:19.952Z,979.97
2022-11-28T00:17:19.695Z,979.94
2022-11-28T00:18:19.614Z,979.96
2022-11-28T00:19:19.663Z,979.99
2022-11-28T00:20:19.628Z,979.99
2022-11-28T00:21:19.603Z,979.98
2022-11-28T00:22:19.566Z,979.97
2022-11-28T00:23:19.573Z,979.95
2022-11-28T00:24:19.609Z,980.00
2022-11-28T00:25:19.567Z,980.00
2022-11-28T00:26:19.569Z,979.98
2022-11-28T00:27:19.581Z,979.96
2022-11-28T00:28:19.966Z,980.04
2022-11-28T00:29:19.513Z,980.09
2022-11-28T00:30:19.509Z,980.13
2022-11-28T00:31:19.553Z,980.10
2022-11-28T00:32:19.462Z,980.03
2022-11-28T00:33:19.482Z,980.03
2022-11-28T00:34:19.443Z,979.97
2022-11-28T00:35:19.475Z,979.88
2022-11-28T00:36:19.442Z,979.90
2022-11-28T00:37:19.458Z,979.91
2022-11-28T00:38:19.421Z,979.92
2022-11-28T00:39:19.414Z,979.92
2022-11-28T00:40:19.432Z,979.91
2022-11-28T00:41:19.383Z,979.96
2022-11-28T00:42:19.369Z,979.94
2022-11-28T00:43:19.374Z,979.89
2022-11-28T00:44:19.665Z,979.85
2022-11-28T00:45:19.349Z,979.86
2022-11-28T00:46:19.365Z,979.96
2022-11-28T00:47:19.324Z,979.86
2022-11-28T00:48:19.294Z,979.86
2022-11-28T00:49:19.311Z,979.84
2022-11-28T00:50:19.300Z,979.86
2022-11-28T00:51:19.284Z,979.85
2022-11-28T00:52:19.308Z,979.85
2022-11-28T00:53:19.250Z,979.85
2022-11-28T00:54:19.253Z,979.85
2022-11-28T00:55:19.250Z,979.84
2022-11-28T00:56:19.241Z,979.82
2022-11-28T00:57:19.250Z,979.86
2022-11-28T00:58:19.242Z,979.79
2022-11-28T00:59:19.210Z,979.83
2022-11-28T01:00:19.200Z,979.81
2022-11-28T01:01:19.349Z,979.77
2022-11-28T01:02:19.233Z,979.71
2022-11-28T01:03:19.149Z,979.75
2022-11-28T01:04:19.151Z,979.72
2022-11-28T01:05:19.146Z,979.65
2022-11-28T01:06:19.099Z,979.68
2022-11-28T01:07:19.231Z,979.70
2022-11-28T01:08:19.087Z,979.75
2022-11-28T01:09:19.088Z,979.69
2022-11-28T01:10:19.049Z,979.73
2022-11-28T01:11:19.075Z,979.70
2022-11-28T01:12:19.142Z,979.71
2022-11-28T01:13:19.086Z,979.66
2022-11-28T01:14:19.011Z,979.67
2022-11-28T01:15:19.033Z,979.60
2022-11-28T01:16:19.033Z,979.59
2022-11-28T01:17:19.198Z,979.63
2022-11-28T01:18:19.119Z,979.67
2022-11-28T01:19:19.128Z,979.61
2022-11-28T01:20:18.941Z,979.55
2022-11-28T01:21:18.948Z,979.57
2022-11-28T01:22:18.930Z,979.58
2022-11-28T01:23:19.222Z,979.66
2022-11-28T01:24:18.934Z,979.66
2022-11-28T01:25:18.929Z,979.63
2022-11-28T01:26:19.159Z,979.69
2022-11-28T01:27:19.183Z,979.65
2022-11-28T01:28:19.180Z,979.65
2022-11-28T01:29:18.864Z,979.62
2022-11-28T01:30:18.887Z,979.58
2022-11-28T01:31:18.885Z,979.63
2022-11-28T01:32:18.851Z,979.54
2022-11-28T01:33:18.810Z,979.59
2022-11-28T01:34:19.001Z,979.54
2022-11-28T01:35:18.923Z,979.51
2022-11-28T01:36:18.897Z,979.52
2022-11-28T01:37:19.117Z,979.51
2022-11-28T01:38:19.120Z,979.50
2022-11-28T01:39:18.766Z,979.47
2022-11-28T01:40:18.736Z,979.46
2022-11-28T01:41:18.736Z,979.46
2022-11-28T01:42:18.746Z,979.46
2022-11-28T01:43:18.726Z,979.40
2022-11-28T01:44:18.711Z,979.44
2022-11-28T01:45:18.776Z,979.43
2022-11-28T01:46:18.704Z,979.44
2022-11-28T01:47:18.788Z,979.41
2022-11-28T01:48:18.786Z,979.45
2022-11-28T01:49:18.804Z,979.49
2022-11-28T01:50:18.624Z,979.47
2022-11-28T01:51:18.625Z,979.46
2022-11-28T01:52:18.621Z,979.47
2022-11-28T01:53:18.605Z,979.45
2022-11-28T01:54:18.703Z,979.46
2022-11-28T01:55:18.579Z,979.39
2022-11-28T01:56:18.836Z,979.38
2022-11-28T01:57:18.557Z,979.34
2022-11-28T01:58:18.770Z,979.30
2022-11-28T01:59:19.006Z,979.24
2022-11-28T02:00:18.564Z,979.26
2022-11-28T02:01:18.657Z,979.25
2022-11-28T02:02:18.796Z,979.23
2022-11-28T02:03:18.544Z,979.23
2022-11-28T02:04:18.604Z,979.20
2022-11-28T02:05:18.483Z,979.17
2022-11-28T02:06:18.521Z,979.15
2022-11-28T02:07:19.099Z,979.18
2022-11-28T02:08:18.420Z,979.14
2022-11-28T02:09:18.422Z,979.09
2022-11-28T02:10:18.419Z,979.14
2022-11-28T02:11:18.410Z,979.10
2022-11-28T02:12:18.634Z,979.14
2022-11-28T02:13:18.435Z,979.07
2022-11-28T02:14:18.345Z,979.09
2022-11-28T02:15:18.355Z,978.99
2022-11-28T02:16:18.388Z,978.99
2022-11-28T02:17:18.314Z,978.99
2022-11-28T02:18:18.886Z,978.95
2022-11-28T02:19:18.304Z,978.92
2022-11-28T02:20:19.003Z,978.89
2022-11-28T02:21:18.274Z,978.92
2022-11-28T02:22:18.291Z,978.95
2022-11-28T02:23:18.269Z,978.89
2022-11-28T02:24:18.364Z,978.85
2022-11-28T02:25:18.237Z,978.80
2022-11-28T02:26:18.243Z,978.79
2022-11-28T02:27:18.342Z,978.82
2022-11-28T02:28:18.352Z,978.81
2022-11-28T02:29:18.182Z,978.79
2022-11-28T02:30:18.225Z,978.81
2022-11-28T02:31:18.265Z,978.78
2022-11-28T02:32:18.173Z,978.75
2022-11-28T02:33:18.122Z,978.85
2022-11-28T02:34:18.205Z,978.87
2022-11-28T02:35:18.100Z,978.86
2022-11-28T02:36:18.124Z,978.93
2022-11-28T02:37:18.192Z,978.97
2022-11-28T02:38:18.105Z,978.98
2022-11-28T02:39:18.070Z,979.03
2022-11-28T02:40:18.224Z,978.97
2022-11-28T02:41:18.221Z,978.95
2022-11-28T02:42:18.072Z,978.97
2022-11-28T02:43:18.063Z,978.96
2022-11-28T02:44:18.046Z,978.96
2022-11-28T02:45:18.013Z,978.95
2022-11-28T02:46:18.048Z,978.94
2022-11-28T02:47:17.982Z,978.95
2022-11-28T02:48:18.054Z,978.95
2022-11-28T02:49:17.980Z,978.89
2022-11-28T02:50:17.981Z,978.89
2022-11-28T02:51:17.954Z,978.77
2022-11-28T02:52:17.941Z,978.70
2022-11-28T02:53:17.907Z,978.65
2022-11-28T02:54:17.941Z,978.61
2022-11-28T02:55:17.898Z,978.50
2022-11-28T02:56:17.939Z,978.45
2022-11-28T02:57:17.864Z,978.40
2022-11-28T02:58:17.890Z,978.28
2022-11-28T02:59:18.454Z,978.16
2022-11-28T03:00:18.099Z,978.11
2022-11-28T03:01:17.939Z,978.16
2022-11-28T03:02:17.944Z,978.19
2022-11-28T03:03:17.838Z,978.19
2022-11-28T03:04:18.119Z,978.26
2022-11-28T03:05:18.031Z,978.40
2022-11-28T03:06:17.809Z,978.46
2022-11-28T03:07:17.963Z,978.51
2022-11-28T03:08:17.809Z,978.60
2022-11-28T03:09:17.815Z,978.66
2022-11-28T03:10:17.820Z,978.63
2022-11-28T03:11:17.729Z,978.58
2022-11-28T03:12:17.833Z,978.47
2022-11-28T03:13:17.688Z,978.38
2022-11-28T03:14:18.070Z,978.32
2022-11-28T03:15:17.680Z,978.33
2022-11-28T03:16:17.737Z,978.27
2022-11-28T03:17:17.644Z,978.19
2022-11-28T03:18:17.687Z,978.13
2022-11-28T03:19:17.638Z,978.15
2022-11-28T03:20:17.779Z,978.14
2022-11-28T03:21:18.710Z,978.03
2022-11-28T03:22:17.628Z,978.01
2022-11-28T03:23:17.577Z,978.18
2022-11-28T03:24:17.598Z,978.32
2022-11-28T03:25:17.558Z,978.46
2022-11-28T03:26:17.575Z,978.47
2022-11-28T03:27:17.537Z,978.42
2022-11-28T03:28:17.574Z,978.35
2022-11-28T03:29:17.528Z,978.35
2022-11-28T03:30:17.543Z,978.44
2022-11-28T03:31:18.190Z,978.40
2022-11-28T03:32:17.509Z,978.33
2022-11-28T03:33:17.469Z,978.39
2022-11-28T03:34:17.476Z,978.37
2022-11-28T03:35:17.461Z,978.33
2022-11-28T03:36:17.746Z,978.33
2022-11-28T03:37:17.504Z,978.33
2022-11-28T03:38:17.437Z,978.28
2022-11-28T03:39:17.517Z,978.33
2022-11-28T03:40:17.607Z,978.35
2022-11-28T03:41:17.626Z,978.31
2022-11-28T03:42:17.528Z,978.32
2022-11-28T03:43:17.376Z,978.33
2022-11-28T03:44:17.365Z,978.34
2022-11-28T03:45:17.345Z,978.33
2022-11-28T03:46:17.413Z,978.36
2022-11-28T03:47:17.347Z,978.34
2022-11-28T03:48:17.465Z,978.34
2022-11-28T03:49:17.305Z,978.34
2022-11-28T03:50:17.309Z,978.37
2022-11-28T03:51:17.266Z,978.36
2022-11-28T03:52:17.299Z,978.33
2022-11-28T03:53:17.285Z,978.33
2022-11-28T03:54:17.337Z,978.35
2022-11-28T03:55:17.301Z,978.30
2022-11-28T03:56:17.325Z,978.28
2022-11-28T03:57:17.205Z,978.23
2022-11-28T03:58:17.214Z,978.22
2022-11-28T03:59:17.209Z,978.19
2022-11-28T04:00:17.234Z,978.17
2022-11-28T04:01:17.246Z,978.15
2022-11-28T04:02:17.266Z,978.17
2022-11-28T04:03:17.197Z,978.18
2022-11-28T04:04:17.265Z,978.19
2022-11-28T04:05:17.135Z,978.17
2022-11-28T04:06:17.154Z,978.17
2022-11-28T04:07:17.170Z,978.15
2022-11-28T04:08:17.107Z,978.19
2022-11-28T04:09:17.065Z,978.20
2022-11-28T04:10:17.092Z,978.16
2022-11-28T04:11:17.056Z,978.13
2022-11-28T04:12:17.072Z,978.17
2022-11-28T04:13:17.056Z,978.17
2022-11-28T04:14:17.053Z,978.10
2022-11-28T04:15:17.005Z,978.08
2022-11-28T04:16:17.051Z,978.10
2022-11-28T04:17:16.985Z,978.07
2022-11-28T04:18:17.002Z,978.06
2022-11-28T04:19:16.963Z,977.98
2022-11-28T04:20:16.973Z,977.99
2022-11-28T04:21:16.973Z,978.02
2022-11-28T04:22:16.980Z,978.12
2022-11-28T04:23:16.963Z,978.12
2022-11-28T04:24:16.943Z,978.09
2022-11-28T04:25:16.916Z,978.09
2022-11-28T04:26:16.922Z,978.08
2022-11-28T04:27:16.929Z,978.08
2022-11-28T04:28:16.904Z,978.11
2022-11-28T04:29:16.873Z,978.09
2022-11-28T04:30:16.884Z,978.06
2022-11-28T04:31:16.904Z,978.12
2022-11-28T04:32:16.855Z,978.11
2022-11-28T04:33:16.812Z,978.13
2022-11-28T04:34:16.828Z,978.14
2022-11-28T04:35:16.806Z,978.11
2022-11-28T04:36:16.806Z,978.13
2022-11-28T04:37:16.779Z,978.06
2022-11-28T04:38:16.791Z,978.08
2022-11-28T04:39:16.749Z,978.09
2022-11-28T04:40:16.814Z,978.07
2022-11-28T04:41:16.722Z,978.03
2022-11-28T04:42:16.749Z,978.08
2022-11-28T04:43:16.811Z,978.08
2022-11-28T04:44:16.721Z,978.11
2022-11-28T04:45:16.684Z,978.09
2022-11-28T04:46:16.741Z,978.14
2022-11-28T04:47:16.650Z,978.18
2022-11-28T04:48:16.787Z,978.21
2022-11-28T04:49:16.631Z,978.16
2022-11-28T04:50:16.650Z,978.19
2022-11-28T04:51:16.618Z,978.23
2022-11-28T04:52:16.621Z,978.14
2022-11-28T04:53:16.629Z,978.14
2022-11-28T04:54:16.660Z,978.13
2022-11-28T04:55:16.774Z,978.12
2022-11-28T04:56:16.599Z,978.11
2022-11-28T04:57:16.550Z,978.10
2022-11-28T04:58:16.560Z,978.07
2022-11-28T04:59:16.547Z,978.06
2022-11-28T05:00:16.595Z,978.04
2022-11-28T05:01:16.553Z,978.10
2022-11-28T05:02:16.622Z,978.09
2022-11-28T05:03:16.489Z,978.10
2022-11-28T05:04:16.563Z,978.07
2022-11-28T05:05:16.466Z,978.05
2022-11-28T05:06:16.571Z,978.05
2022-11-28T05:07:16.499Z,978.11
2022-11-28T05:08:16.480Z,978.14
2022-11-28T05:09:16.419Z,978.11
2022-11-28T05:10:16.440Z,978.07
2022-11-28T05:11:16.400Z,978.09
2022-11-28T05:12:16.419Z,978.03
2022-11-28T05:13:16.380Z,977.96
2022-11-28T05:14:16.398Z,977.99
2022-11-28T05:15:16.348Z,977.97
2022-11-28T05:16:16.490Z,978.05
2022-11-28T05:17:16.344Z,978.03
2022-11-28T05:18:16.394Z,978.10
2022-11-28T05:19:16.338Z,978.13
2022-11-28T05:20:16.318Z,978.20
2022-11-28T05:21:16.334Z,978.16
2022-11-28T05:22:16.318Z,978.22
2022-11-28T05:23:16.289Z,978.17
2022-11-28T05:24:16.379Z,978.19
2022-11-28T05:25:16.257Z,978.19
2022-11-28T05:26:16.257Z,978.20
2022-11-28T05:27:16.232Z,978.19
2022-11-28T05:28:16.518Z,978.24
2022-11-28T05:29:16.246Z,978.19
2022-11-28T05:30:16.220Z,978.20
2022-11-28T05:31:16.320Z,978.14
2022-11-28T05:32:16.198Z,978.18
2022-11-28T05:33:16.164Z,978.13
2022-11-28T05:34:16.188Z,978.15
2022-11-28T05:35:16.151Z,978.21
2022-11-28T05:36:16.160Z,978.11
2022-11-28T05:37:16.177Z,978.10
2022-11-28T05:38:16.125Z,978.07
2022-11-28T05:39:16.116Z,978.05
2022-11-28T05:40:16.133Z,978.04
2022-11-28T05:41:16.067Z,978.02
2022-11-28T05:42:16.117Z,978.00
2022-11-28T05:43:16.127Z,978.01
2022-11-28T05:44:16.166Z,977.98
2022-11-28T05:45:16.035Z,978.03
2022-11-28T05:46:16.201Z,978.03
2022-11-28T05:47:16.005Z,977.99
2022-11-28T05:48:16.083Z,978.00
2022-11-28T05:49:16.037Z,978.00
2022-11-28T05:50:15.996Z,978.01
2022-11-28T05:51:15.954Z,978.02
2022-11-28T05:52:15.973Z,978.04
2022-11-28T05:53:15.955Z,978.05
2022-11-28T05:54:15.960Z,978.10
2022-11-28T05:55:15.929Z,978.09
2022-11-28T05:56:15.963Z,978.11
2022-11-28T05:57:16.056Z,978.13
2022-11-28T05:58:15.908Z,978.15
2022-11-28T05:59:16.233Z,978.10
2022-11-28T06:00:15.910Z,978.14
2022-11-28T06:01:15.880Z,978.11
2022-11-28T06:02:15.931Z,978.08
2022-11-28T06:03:15.864Z,978.08
2022-11-28T06:04:15.887Z,978.11
2022-11-28T06:05:41.114Z,978.07
2022-11-28T06:06:16.845Z,978.10
2022-11-28T06:07:15.811Z,978.05
2022-11-28T06:08:15.804Z,978.10
2022-11-28T06:09:15.764Z,978.04
2022-11-28T06:10:15.853Z,978.03
2022-11-28T06:11:15.743Z,978.03
2022-11-28T06:12:15.902Z,978.08
2022-11-28T06:13:15.724Z,978.05
2022-11-28T06:14:15.835Z,978.07
2022-11-28T06:15:16.223Z,978.04
2022-11-28T06:16:15.797Z,978.07
2022-11-28T06:17:15.924Z,978.05
2022-11-28T06:18:16.260Z,978.05
2022-11-28T06:19:15.662Z,978.06
2022-11-28T06:20:15.672Z,978.05
2022-11-28T06:21:15.643Z,978.06
2022-11-28T06:22:15.662Z,978.06
2022-11-28T06:23:15.767Z,978.03
2022-11-28T06:24:15.783Z,978.01
2022-11-28T06:25:15.884Z,977.96
2022-11-28T06:26:15.641Z,977.92
2022-11-28T06:27:15.575Z,977.91
2022-11-28T06:28:15.593Z,977.98
2022-11-28T06:29:15.555Z,978.01
2022-11-28T06:30:15.562Z,977.99
2022-11-28T06:31:15.615Z,977.99
2022-11-28T06:32:18.923Z,978.01
2022-11-28T06:33:16.521Z,977.97
2022-11-28T06:34:15.492Z,977.99
2022-11-28T06:35:15.529Z,977.99
2022-11-28T06:36:15.481Z,978.01
2022-11-28T06:37:15.491Z,977.95
2022-11-28T06:38:15.600Z,977.99
2022-11-28T06:39:15.522Z,977.98
2022-11-28T06:40:15.470Z,978.09
2022-11-28T06:41:15.450Z,978.05
2022-11-28T06:42:15.422Z,978.08
2022-11-28T06:43:15.441Z,978.12
2022-11-28T06:44:15.410Z,978.09
2022-11-28T06:45:15.511Z,978.11
2022-11-28T06:46:16.501Z,978.13
2022-11-28T06:47:15.381Z,978.11
2022-11-28T06:48:15.370Z,978.14
2022-11-28T06:49:15.380Z,978.18
2022-11-28T06:50:15.335Z,978.13
2022-11-28T06:51:15.377Z,978.13
2022-11-28T06:52:15.292Z,978.17
2022-11-28T06:53:15.308Z,978.21
2022-11-28T06:54:15.305Z,978.23
2022-11-28T06:55:15.304Z,978.25
2022-11-28T06:56:15.251Z,978.18
2022-11-28T06:57:15.268Z,978.14
2022-11-28T06:58:15.230Z,978.17
2022-11-28T06:59:15.239Z,978.15
2022-11-28T07:00:15.238Z,978.17
2022-11-28T07:01:15.375Z,978.15
2022-11-28T07:02:15.274Z,978.14
2022-11-28T07:03:15.198Z,978.15
2022-11-28T07:04:15.167Z,978.16
2022-11-28T07:05:15.198Z,978.09
2022-11-28T07:06:15.190Z,978.13
2022-11-28T07:07:16.749Z,978.12
2022-11-28T07:08:15.158Z,978.13
2022-11-28T07:09:15.157Z,978.11
2022-11-28T07:10:15.107Z,978.13
2022-11-28T07:11:15.126Z,978.13
2022-11-28T07:12:15.087Z,978.14
2022-11-28T07:13:15.237Z,978.18
2022-11-28T07:14:15.069Z,978.14
2022-11-28T07:15:15.101Z,978.18
2022-11-28T07:16:15.101Z,978.17
2022-11-28T07:17:15.055Z,978.16
2022-11-28T07:18:15.068Z,978.13
2022-11-28T07:19:15.037Z,978.10
2022-11-28T07:20:15.016Z,978.09
2022-11-28T07:21:15.021Z,978.04
2022-11-28T07:22:14.966Z,978.08
2022-11-28T07:23:14.986Z,978.10
2022-11-28T07:24:14.957Z,978.08
2022-11-28T07:25:14.997Z,978.04
2022-11-28T07:26:15.095Z,978.04
2022-11-28T07:27:14.949Z,978.04
2022-11-28T07:28:15.709Z,978.05
2022-11-28T07:29:15.028Z,978.05
2022-11-28T07:30:14.895Z,978.04
2022-11-28T07:31:14.948Z,978.03
2022-11-28T07:32:14.950Z,978.03
2022-11-28T07:33:14.890Z,978.00
2022-11-28T07:34:14.866Z,977.99
2022-11-28T07:35:14.887Z,978.03
2022-11-28T07:36:14.827Z,978.07
2022-11-28T07:37:14.862Z,978.08
2022-11-28T07:38:14.827Z,978.10
2022-11-28T07:39:14.814Z,978.08
2022-11-28T07:40:14.788Z,978.12
2022-11-28T07:41:14.814Z,978.09
2022-11-28T07:42:14.758Z,978.16
2022-11-28T07:43:14.786Z,978.15
2022-11-28T07:44:14.748Z,978.15
2022-11-28T07:45:15.118Z,978.15
2022-11-28T07:46:14.865Z,978.12
2022-11-28T07:47:15.226Z,978.13
2022-11-28T07:48:14.694Z,978.17
2022-11-28T07:49:14.745Z,978.16
2022-11-28T07:50:14.674Z,978.14
2022-11-28T07:51:14.848Z,978.14
2022-11-28T07:52:14.654Z,978.18
2022-11-28T07:53:14.665Z,978.18
2022-11-28T07:54:14.623Z,978.19
2022-11-28T07:55:14.648Z,978.19
2022-11-28T07:56:14.705Z,978.19
2022-11-28T07:57:14.682Z,978.18
2022-11-28T07:58:14.608Z,978.21
2022-11-28T07:59:14.595Z,978.23
2022-11-28T08:00:14.579Z,978.19
2022-11-28T08:01:14.613Z,978.18
2022-11-28T08:02:14.650Z,978.15
2022-11-28T08:03:14.576Z,978.19
2022-11-28T08:04:14.557Z,978.17
2022-11-28T08:05:14.601Z,978.14
2022-11-28T08:06:15.417Z,978.10
2022-11-28T08:07:14.625Z,978.13
2022-11-28T08:08:14.568Z,978.17
2022-11-28T08:09:14.487Z,978.16
2022-11-28T08:10:14.490Z,978.19
2022-11-28T08:11:14.493Z,978.09
2022-11-28T08:12:14.471Z,978.13
2022-11-28T08:13:14.480Z,978.08
2022-11-28T08:14:14.418Z,978.09
2022-11-28T08:15:14.457Z,978.08
2022-11-28T08:16:14.438Z,978.03
2022-11-28T08:17:14.394Z,978.02
2022-11-28T08:18:14.371Z,978.04
2022-11-28T08:19:14.381Z,978.01
2022-11-28T08:20:14.343Z,977.98
2022-11-28T08:21:14.351Z,978.01
2022-11-28T08:22:14.326Z,978.06
2022-11-28T08:23:14.363Z,978.02
2022-11-28T08:24:14.328Z,978.06
2022-11-28T08:25:14.363Z,978.12
2022-11-28T08:26:14.282Z,978.10
2022-11-28T08:27:14.475Z,978.06
2022-11-28T08:28:14.485Z,978.07
2022-11-28T08:29:14.524Z,978.05
2022-11-28T08:30:14.261Z,978.09
2022-11-28T08:31:14.279Z,978.09
2022-11-28T08:32:14.311Z,978.07
2022-11-28T08:33:14.280Z,978.04
2022-11-28T08:34:14.193Z,978.02
2022-11-28T08:35:14.248Z,977.98
2022-11-28T08:36:14.202Z,978.00
2022-11-28T08:37:14.233Z,978.03
2022-11-28T08:38:14.161Z,978.02
2022-11-28T08:39:24.135Z,977.96
2022-11-28T08:40:15.140Z,978.00
2022-11-28T08:41:14.148Z,978.03
2022-11-28T08:42:14.131Z,978.00
2022-11-28T08:43:14.145Z,977.92
2022-11-28T08:44:14.091Z,977.96
2022-11-28T08:45:14.090Z,977.89
2022-11-28T08:46:14.141Z,977.93
2022-11-28T08:47:14.330Z,977.92
2022-11-28T08:48:14.320Z,977.93
2022-11-28T08:49:14.351Z,977.96
2022-11-28T08:50:14.023Z,977.94
2022-11-28T08:51:14.344Z,978.01
2022-11-28T08:52:14.148Z,977.99
2022-11-28T08:53:18.556Z,977.99
2022-11-28T08:54:13.992Z,977.95
2022-11-28T08:55:14.005Z,978.00
2022-11-28T08:56:14.020Z,977.94
2022-11-28T08:57:14.039Z,977.93
2022-11-28T08:58:13.928Z,977.92
2022-11-28T08:59:14.029Z,977.95
2022-11-28T09:00:13.912Z,977.91
2022-11-28T09:01:13.976Z,977.92
2022-11-28T09:02:13.911Z,977.89
2022-11-28T09:03:13.929Z,977.94
2022-11-28T09:04:13.904Z,977.91
2022-11-28T09:05:13.883Z,977.92
2022-11-28T09:06:13.861Z,977.94
2022-11-28T09:07:13.888Z,977.97
2022-11-28T09:08:13.870Z,977.98
2022-11-28T09:09:14.057Z,977.97
2022-11-28T09:10:13.797Z,977.98
2022-11-28T09:11:13.812Z,977.93
2022-11-28T09:12:13.788Z,977.92
2022-11-28T09:13:14.087Z,977.91
2022-11-28T09:14:13.761Z,977.89
2022-11-28T09:15:13.779Z,977.90
2022-11-28T09:16:13.734Z,977.92
2022-11-28T09:17:13.791Z,977.88
2022-11-28T09:18:13.726Z,977.88
2022-11-28T09:19:13.727Z,977.87
2022-11-28T09:20:13.694Z,977.86
2022-11-28T09:21:13.726Z,977.83
2022-11-28T09:22:13.656Z,977.87
2022-11-28T09:23:13.667Z,977.87
2022-11-28T09:24:14.087Z,977.83
2022-11-28T09:25:13.647Z,977.85
2022-11-28T09:26:13.607Z,977.85
2022-11-28T09:27:13.647Z,977.85
2022-11-28T09:28:13.796Z,977.88
2022-11-28T09:29:13.818Z,977.84
2022-11-28T09:30:14.202Z,977.80
2022-11-28T09:31:13.671Z,977.86
2022-11-28T09:32:13.554Z,977.82
2022-11-28T09:33:13.556Z,977.77
2022-11-28T09:34:13.527Z,977.80
2022-11-28T09:35:13.544Z,977.81
2022-11-28T09:36:13.495Z,977.80
2022-11-28T09:37:13.515Z,977.78
2022-11-28T09:38:13.477Z,977.81
2022-11-28T09:39:13.487Z,977.81
2022-11-28T09:40:13.999Z,977.84
2022-11-28T09:41:13.525Z,977.81
2022-11-28T09:42:13.435Z,977.82
2022-11-28T09:43:13.445Z,977.80
2022-11-28T09:44:13.412Z,977.85
2022-11-28T09:45:13.429Z,977.84
2022-11-28T09:46:13.933Z,977.82
2022-11-28T09:47:13.400Z,977.82
2022-11-28T09:48:13.374Z,977.77
2022-11-28T09:49:13.833Z,977.80
2022-11-28T09:50:13.820Z,977.81
2022-11-28T09:51:13.365Z,977.79
2022-11-28T09:52:13.432Z,977.82
2022-11-28T09:53:13.334Z,977.82
2022-11-28T09:54:13.304Z,977.81
2022-11-28T09:55:13.348Z,977.85
2022-11-28T09:56:13.275Z,977.85
2022-11-28T09:57:13.312Z,977.87
2022-11-28T09:58:13.285Z,977.84
2022-11-28T09:59:13.304Z,977.87
2022-11-28T10:00:13.234Z,977.85
2022-11-28T10:01:13.303Z,977.84
2022-11-28T10:02:13.225Z,977.76
2022-11-28T10:03:13.272Z,977.82
2022-11-28T10:04:13.322Z,977.82
2022-11-28T10:05:13.245Z,977.79
2022-11-28T10:06:13.193Z,977.83
2022-11-28T10:07:13.266Z,977.82
2022-11-28T10:08:13.154Z,977.81
2022-11-28T10:09:13.172Z,977.83
2022-11-28T10:10:13.153Z,977.86
2022-11-28T10:11:13.136Z,977.84
2022-11-28T10:12:13.104Z,977.83
2022-11-28T10:13:13.111Z,977.80
2022-11-28T10:14:13.074Z,977.82
2022-11-28T10:15:13.083Z,977.84
2022-11-28T10:16:13.098Z,977.85
2022-11-28T10:17:13.108Z,977.86
2022-11-28T10:18:13.043Z,977.88
2022-11-28T10:19:25.723Z,977.90
2022-11-28T10:20:14.005Z,977.89
2022-11-28T10:21:13.073Z,977.91
2022-11-28T10:22:12.992Z,977.90
2022-11-28T10:23:12.992Z,977.90
2022-11-28T10:24:13.003Z,977.84
2022-11-28T10:25:13.002Z,977.88
2022-11-28T10:26:12.940Z,977.83
2022-11-28T10:27:12.955Z,977.77
2022-11-28T10:28:12.932Z,977.76
2022-11-28T10:29:12.943Z,977.80
2022-11-28T10:30:12.984Z,977.77
2022-11-28T10:31:13.028Z,977.77
2022-11-28T10:32:12.874Z,977.77
2022-11-28T10:33:12.881Z,977.75
2022-11-28T10:34:12.841Z,977.77
2022-11-28T10:35:12.919Z,977.81
2022-11-28T10:36:12.842Z,977.75
2022-11-28T10:37:12.886Z,977.77
2022-11-28T10:38:12.811Z,977.76
2022-11-28T10:39:12.820Z,977.77
2022-11-28T10:40:12.788Z,977.79
2022-11-28T10:41:12.791Z,977.76
2022-11-28T10:42:12.760Z,977.83
2022-11-28T10:43:12.770Z,977.80
2022-11-28T10:44:17.048Z,977.82
2022-11-28T10:45:13.761Z,977.83
2022-11-28T10:46:12.740Z,977.79
2022-11-28T10:47:12.721Z,977.79
2022-11-28T10:48:38.447Z,977.78
2022-11-28T10:49:13.703Z,977.79
2022-11-28T10:50:12.691Z,977.80
2022-11-28T10:51:12.701Z,977.82
2022-11-28T10:52:12.722Z,977.82
2022-11-28T10:53:12.641Z,977.83
2022-11-28T10:54:12.682Z,977.81
2022-11-28T10:55:12.652Z,977.87
2022-11-28T10:56:12.661Z,977.86
2022-11-28T10:57:12.608Z,977.87
2022-11-28T10:58:12.598Z,977.88
2022-11-28T10:59:12.569Z,977.90
2022-11-28T11:00:12.599Z,977.84
2022-11-28T11:01:12.637Z,977.92
2022-11-28T11:02:12.549Z,977.91
2022-11-28T11:03:12.538Z,977.88
2022-11-28T11:04:12.566Z,977.92
2022-11-28T11:05:12.498Z,977.85
2022-11-28T11:06:12.530Z,977.90
2022-11-28T11:07:17.674Z,977.88
2022-11-28T11:08:13.561Z,977.87
2022-11-28T11:09:12.459Z,977.87
2022-11-28T11:10:12.461Z,977.89
2022-11-28T11:11:12.418Z,977.90
2022-11-28T11:12:12.431Z,977.89
2022-11-28T11:13:12.430Z,977.89
2022-11-28T11:14:12.410Z,977.88
2022-11-28T11:15:12.369Z,977.88
2022-11-28T11:16:12.424Z,977.86
2022-11-28T11:17:12.408Z,977.86
2022-11-28T11:18:12.374Z,977.86
2022-11-28T11:19:12.331Z,977.83
2022-11-28T11:20:12.416Z,977.82
2022-11-28T11:21:12.339Z,977.79
2022-11-28T11:22:12.321Z,977.75
2022-11-28T11:23:12.289Z,977.74
2022-11-28T11:24:12.307Z,977.76
2022-11-28T11:25:12.269Z,977.78
2022-11-28T11:26:12.275Z,977.72
2022-11-28T11:27:12.238Z,977.69
2022-11-28T11:28:12.287Z,977.75
2022-11-28T11:29:12.222Z,977.76
2022-11-28T11:30:12.558Z,977.73
2022-11-28T11:31:12.262Z,977.76
2022-11-28T11:32:12.210Z,977.73
2022-11-28T11:33:12.178Z,977.75
2022-11-28T11:34:12.213Z,977.74
2022-11-28T11:35:12.146Z,977.77
2022-11-28T11:36:12.171Z,977.73
2022-11-28T11:37:12.117Z,977.74
2022-11-28T11:38:12.136Z,977.76
2022-11-28T11:39:12.157Z,977.76
2022-11-28T11:40:12.156Z,977.74
2022-11-28T11:41:12.118Z,977.74
2022-11-28T11:42:12.097Z,977.75
2022-11-28T11:43:12.057Z,977.79
2022-11-28T11:44:12.100Z,977.76
2022-11-28T11:45:12.220Z,977.79
2022-11-28T11:46:12.171Z,977.78
2022-11-28T11:47:12.027Z,977.77
2022-11-28T11:48:12.017Z,977.73
2022-11-28T11:49:11.996Z,977.77
2022-11-28T11:50:12.043Z,977.78
2022-11-28T11:51:11.987Z,977.77
2022-11-28T11:52:12.006Z,977.76
2022-11-28T11:53:11.954Z,977.78
2022-11-28T11:54:11.957Z,977.79
2022-11-28T11:55:11.945Z,977.76
2022-11-28T11:56:11.965Z,977.72
2022-11-28T11:57:31.972Z,977.82
2022-11-28T11:58:12.912Z,977.78
2022-11-28T11:59:11.887Z,977.78
2022-11-28T12:00:11.895Z,977.82
2022-11-28T12:01:11.883Z,977.81
2022-11-28T12:02:11.910Z,977.80
2022-11-28T12:03:11.930Z,977.84
2022-11-28T12:04:37.107Z,977.80
2022-11-28T12:05:12.806Z,977.84
2022-11-28T12:06:14.628Z,977.86
2022-11-28T12:07:11.814Z,977.83
2022-11-28T12:08:11.840Z,977.84
2022-11-28T12:09:11.773Z,977.83
2022-11-28T12:10:11.776Z,977.83
2022-11-28T12:11:11.739Z,977.87
2022-11-28T12:12:11.785Z,977.89
2022-11-28T12:13:11.725Z,977.86
2022-11-28T12:14:11.768Z,977.87
2022-11-28T12:15:11.716Z,977.82
2022-11-28T12:16:11.760Z,977.85
2022-11-28T12:18:12.700Z,977.84
2022-11-28T12:19:11.650Z,977.80
2022-11-28T12:20:11.779Z,977.79
2022-11-28T12:21:11.647Z,977.77
2022-11-28T12:22:11.635Z,977.78
2022-11-28T12:23:17.030Z,977.78
2022-11-28T12:24:12.615Z,977.76
2022-11-28T12:25:11.582Z,977.80
2022-11-28T12:26:11.593Z,977.80
2022-11-28T12:27:11.574Z,977.79
2022-11-28T12:28:11.576Z,977.80
2022-11-28T12:29:11.544Z,977.82